createdAt,value
2022-11-07T00:01:47.236Z,94734.75
2022-11-07T00:04:15.224Z,94730.72
2022-11-07T00:06:42.370Z,94747.84
2022-11-07T00:09:09.765Z,94741.69
2022-11-07T00:11:37.058Z,94757.69
2022-11-07T00:14:05.352Z,94749.69
2022-11-07T00:16:32.986Z,94751.03
2022-11-07T00:19:00.320Z,94746.47
2022-11-07T00:21:27.986Z,94751.28
2022-11-07T00:23:55.085Z,94764.91
2022-11-07T00:26:22.498Z,94764.91
2022-11-07T00:28:50.028Z,94760.91
2022-11-07T00:31:18.013Z,94776.66
2022-11-07T00:33:45.968Z,94764.63
2022-11-07T00:36:23.517Z,94775.03
2022-11-07T00:38:50.848Z,94773.44
2022-11-07T00:41:18.435Z,94777.16
2022-11-07T00:43:46.006Z,94772.63
2022-11-07T00:46:15.910Z,94782.50
2022-11-07T00:48:43.457Z,94771.03
2022-11-07T00:51:14.391Z,94775.31
2022-11-07T00:53:41.826Z,94789.44
2022-11-07T00:56:12.769Z,94787.03
2022-11-07T00:58:43.030Z,94798.00
2022-11-07T01:01:20.044Z,94794.50
2022-11-07T01:04:06.431Z,94800.38
2022-11-07T01:06:37.769Z,94798.00
2022-11-07T01:09:08.556Z,94803.31
2022-11-07T01:11:38.134Z,94793.72
2022-11-07T01:14:07.999Z,94797.72
2022-11-07T01:16:35.487Z,94798.22
2022-11-07T01:19:03.667Z,94809.72
2022-11-07T01:21:31.098Z,94800.09
2022-11-07T01:23:58.300Z,94803.00
2022-11-07T01:26:25.498Z,94806.22
2022-11-07T01:28:52.650Z,94811.28
2022-11-07T01:31:19.855Z,94809.16
2022-11-07T01:33:47.096Z,94813.72
2022-11-07T01:36:17.501Z,94812.63
2022-11-07T01:38:50.442Z,94817.19
2022-11-07T01:41:22.972Z,94821.97
2022-11-07T01:44:08.423Z,94821.19
2022-11-07T01:46:39.774Z,94824.34
2022-11-07T01:49:17.140Z,94820.38
2022-11-07T01:52:04.246Z,94820.91
2022-11-07T01:54:53.074Z,94823.84
2022-11-07T01:57:27.340Z,94827.28
2022-11-07T01:59:57.541Z,94833.44
2022-11-07T02:02:27.447Z,94838.50
2022-11-07T02:04:58.126Z,94833.44
2022-11-07T02:07:25.854Z,94844.91
2022-11-07T02:09:54.382Z,94842.22
2022-11-07T02:12:24.890Z,94852.13
2022-11-07T02:14:52.026Z,94848.09
2022-11-07T02:17:19.870Z,94841.69
2022-11-07T02:19:56.612Z,94848.63
2022-11-07T02:22:54.364Z,94846.22
2022-11-07T02:25:33.437Z,94844.63
2022-11-07T04:31:12.617Z,94894.47
2022-11-07T04:44:20.586Z,94918.44
2022-11-07T04:53:05.808Z,94920.25
2022-11-07T04:55:33.231Z,94923.00
2022-11-07T04:58:00.419Z,94931.53
2022-11-07T05:00:27.831Z,94927.53
2022-11-07T05:02:58.303Z,94935.84
2022-11-07T05:05:25.711Z,94928.13
2022-11-07T05:07:52.854Z,94918.75
2022-11-07T05:10:27.507Z,94926.81
2022-11-07T05:12:56.678Z,94922.00
2022-11-07T05:15:24.371Z,94918.59
2022-11-07T05:17:51.478Z,94923.09
2022-11-07T05:20:32.241Z,94917.00
2022-11-07T05:23:16.226Z,94911.94
2022-11-07T05:25:52.926Z,94932.72
2022-11-07T05:28:35.205Z,94924.72
2022-11-07T05:31:06.109Z,94929.81
2022-11-07T05:33:35.613Z,94937.56
2022-11-07T05:36:21.357Z,94938.63
2022-11-07T05:38:52.125Z,94942.09
2022-11-07T05:41:21.801Z,94936.47
2022-11-07T05:43:49.119Z,94939.19
2022-11-07T05:46:16.708Z,94949.84
2022-11-07T05:48:43.902Z,94957.84
2022-11-07T05:51:11.054Z,94950.63
2022-11-07T05:53:38.616Z,94944.25
2022-11-07T05:56:06.295Z,94943.44
2022-11-07T05:58:33.568Z,94948.78
2022-11-07T06:01:06.472Z,94947.69
2022-11-07T06:03:34.169Z,94952.50
2022-11-07T06:06:01.261Z,94954.13
2022-11-07T06:08:28.423Z,94955.44
2022-11-07T06:10:55.547Z,94965.31
2022-11-07T06:13:22.852Z,94970.63
2022-11-07T06:15:50.026Z,94971.69
2022-11-07T06:18:20.457Z,94969.59
2022-11-07T06:20:47.873Z,94966.38
2022-11-07T06:23:15.970Z,94976.78
2022-11-07T06:25:43.693Z,94972.53
2022-11-07T06:28:12.809Z,94975.19
2022-11-07T06:30:40.833Z,94986.66
2022-11-07T06:33:13.231Z,94990.63
2022-11-07T06:35:41.113Z,95002.13
2022-11-07T06:38:11.299Z,95009.84
2022-11-07T06:40:40.688Z,95021.84
2022-11-07T06:43:19.175Z,95032.25
2022-11-07T06:45:47.459Z,95045.56
2022-11-07T06:48:14.562Z,95041.56
2022-11-07T06:50:41.933Z,95050.91
2022-11-07T06:53:12.956Z,95055.44
2022-11-07T06:55:40.656Z,95051.16
2022-11-07T06:58:08.087Z,95055.69
2022-11-07T07:00:36.765Z,95057.84
2022-11-07T07:03:04.154Z,95053.00
2022-11-07T07:05:35.646Z,95058.34
2022-11-07T07:08:05.147Z,95068.78
2022-11-07T07:10:37.772Z,95067.66
2022-11-07T07:13:05.054Z,95060.19
2022-11-07T07:15:49.368Z,95064.22
2022-11-07T07:18:17.867Z,95062.59
2022-11-07T07:20:46.700Z,95053.00
2022-11-07T07:23:14.026Z,95073.28
2022-11-07T07:25:41.263Z,95075.97
2022-11-07T07:28:08.510Z,95075.16
2022-11-07T07:30:35.694Z,95079.44
2022-11-07T07:33:03.001Z,95080.50
2022-11-07T07:35:30.544Z,95090.91
2022-11-07T07:38:22.003Z,95069.81
2022-11-07T07:41:04.693Z,95083.66
2022-11-07T07:43:41.216Z,95104.50
2022-11-07T07:46:14.555Z,95102.63
2022-11-07T07:48:46.570Z,95110.63
2022-11-07T07:51:13.954Z,95113.03
2022-11-07T07:53:41.434Z,95112.81
2022-11-07T07:56:09.117Z,95118.94
2022-11-07T07:58:36.694Z,95116.25
2022-11-07T08:01:10.339Z,95110.94
2022-11-07T08:03:59.716Z,95100.22
2022-11-07T08:06:27.239Z,95109.09
2022-11-07T08:08:54.518Z,95118.44
2022-11-07T08:11:22.127Z,95116.81
2022-11-07T08:13:49.515Z,95117.38
2022-11-07T08:16:16.903Z,95108.81
2022-11-07T08:18:44.109Z,95110.97
2022-11-07T08:21:11.533Z,95111.78
2022-11-07T08:23:39.007Z,95117.38
2022-11-07T08:26:06.906Z,95125.91
2022-11-07T08:28:36.274Z,95130.47
2022-11-07T08:31:07.216Z,95122.94
2022-11-07T08:33:35.338Z,95124.88
2022-11-07T08:36:04.846Z,95127.28
2022-11-07T08:38:34.718Z,95128.34
2022-11-07T08:41:02.203Z,95128.09
2022-11-07T08:43:29.872Z,95128.59
2022-11-07T08:45:58.616Z,95129.94
2022-11-07T08:48:26.537Z,95133.16
2022-11-07T08:50:58.062Z,95132.91
2022-11-07T08:53:27.977Z,95112.84
2022-11-07T08:56:07.829Z,95117.16
2022-11-07T08:58:37.067Z,95124.66
2022-11-07T09:01:09.641Z,95122.00
2022-11-07T09:03:52.937Z,95123.84
2022-11-07T09:06:22.953Z,95125.47
2022-11-07T09:08:50.126Z,95128.91
2022-11-07T09:11:21.901Z,95117.16
2022-11-07T09:13:49.132Z,95127.88
2022-11-07T09:16:19.919Z,95129.47
2022-11-07T09:19:01.736Z,95124.66
2022-11-07T09:21:32.742Z,95132.16
2022-11-07T09:24:00.315Z,95128.44
2022-11-07T09:26:27.804Z,95134.31
2022-11-07T09:29:00.803Z,95131.88
2022-11-07T09:31:28.778Z,95127.91
2022-11-07T09:33:56.151Z,95126.84
2022-11-07T09:36:24.179Z,95123.94
2022-11-07T09:38:51.704Z,95129.53
2022-11-07T09:41:46.357Z,95118.63
2022-11-07T09:44:57.463Z,95122.84
2022-11-07T09:47:37.109Z,95134.84
2022-11-07T09:50:29.867Z,95132.19
2022-11-07T09:53:33.326Z,95134.06
2022-11-07T09:56:04.706Z,95139.41
2022-11-07T09:58:34.957Z,95136.72
2022-11-07T10:01:09.670Z,95140.75
2022-11-07T10:03:49.057Z,95146.09
2022-11-07T10:06:32.625Z,95130.53
2022-11-07T10:09:22.092Z,95144.19
2022-11-07T10:12:00.144Z,95153.03
2022-11-07T10:15:00.227Z,95151.41
2022-11-07T10:17:47.839Z,95146.09
2022-11-07T10:20:25.130Z,95143.97
2022-11-07T10:23:56.041Z,95150.38
2022-11-07T10:26:29.871Z,95136.16
2022-11-07T10:29:17.288Z,95138.88
2022-11-07T10:32:09.258Z,95141.53
2022-11-07T10:35:24.810Z,95147.13
2022-11-07T10:38:08.722Z,95143.91
2022-11-07T10:40:42.080Z,95148.50
2022-11-07T10:43:23.873Z,95146.09
2022-11-07T10:45:52.407Z,95150.66
2022-11-07T10:48:19.697Z,95147.19
2022-11-07T10:50:57.424Z,95149.63
2022-11-07T10:53:29.512Z,95143.22
2022-11-07T10:55:58.892Z,95148.00
2022-11-07T10:58:29.141Z,95137.81
2022-11-07T11:01:08.372Z,95136.28
2022-11-07T11:03:48.619Z,95133.34
2022-11-07T11:06:19.027Z,95137.09
2022-11-07T11:08:49.444Z,95130.16
2022-11-07T11:11:32.284Z,95124.53
2022-11-07T11:14:20.159Z,95107.16
2022-11-07T11:16:57.144Z,95105.03
2022-11-07T11:19:26.636Z,95106.13
2022-11-07T11:21:58.117Z,95106.13
2022-11-07T11:24:31.674Z,95120.03
2022-11-07T11:27:07.666Z,95121.34
2022-11-07T11:29:44.943Z,95118.69
2022-11-07T11:32:27.994Z,95108.28
2022-11-07T11:35:43.222Z,95118.69
2022-11-07T11:38:33.335Z,95108.28
2022-11-07T11:41:13.645Z,95093.06
2022-11-07T11:44:04.450Z,95093.06
2022-11-07T11:47:15.348Z,95093.31
2022-11-07T11:49:59.130Z,95079.19
2022-11-07T11:52:27.976Z,95081.84
2022-11-07T11:55:01.923Z,95087.97
2022-11-07T11:58:19.345Z,95087.44
2022-11-07T12:01:13.275Z,95083.16
2022-11-07T12:03:49.513Z,95086.38
2022-11-07T12:06:46.268Z,95083.69
2022-11-07T12:09:52.144Z,95077.00
2022-11-07T12:12:40.217Z,95074.09
2022-11-07T12:15:31.923Z,95086.38
2022-11-07T12:18:23.905Z,95079.41
2022-11-07T12:20:56.052Z,95078.38
2022-11-07T12:23:51.788Z,95074.09
2022-11-07T12:26:48.907Z,95066.91
2022-11-07T12:29:28.567Z,95065.03
2022-11-07T12:32:11.113Z,95069.31
2022-11-07T12:35:10.200Z,95062.34
2022-11-07T12:38:15.840Z,95060.72
2022-11-07T12:41:28.632Z,95068.50
2022-11-07T12:44:12.216Z,95066.34
2022-11-07T12:51:40.452Z,95066.31
2022-11-07T12:54:47.837Z,95071.66
2022-11-07T12:57:37.758Z,95069.50
2022-11-07T13:00:27.596Z,95071.13
2022-11-07T13:03:50.096Z,95074.84
2022-11-07T13:06:59.790Z,95067.09
2022-11-07T13:10:29.724Z,95066.53
2022-11-07T13:13:12.428Z,95068.97
2022-11-07T13:16:08.970Z,95069.50
2022-11-07T13:18:28.485Z,95067.66
2022-11-07T13:21:20.759Z,95057.19
2022-11-07T13:23:51.699Z,95070.88
2022-11-07T13:29:38.466Z,95069.00
2022-11-07T13:32:16.779Z,95072.47
2022-11-07T13:34:59.225Z,95073.56
2022-11-07T13:37:36.316Z,95068.50
2022-11-07T13:40:32.025Z,95080.25
2022-11-07T13:43:55.705Z,95088.47
2022-11-07T13:46:31.682Z,95081.28
2022-11-07T13:49:16.343Z,95086.38
2022-11-07T13:52:01.117Z,95085.03
2022-11-07T13:54:47.807Z,95076.75
2022-11-07T13:57:33.162Z,95081.03
2022-11-07T14:00:16.491Z,95078.38
2022-11-07T14:03:09.454Z,95077.56
2022-11-07T14:05:43.132Z,95073.00
2022-11-07T14:08:25.899Z,95077.81
2022-11-07T14:11:05.620Z,95078.09
2022-11-07T14:13:41.591Z,95077.31
2022-11-07T14:16:26.861Z,95069.81
2022-11-07T14:19:04.050Z,95072.75
2022-11-07T14:21:34.900Z,95077.31
2022-11-07T14:24:03.360Z,95073.84
2022-11-07T14:26:38.823Z,95069.88
2022-11-07T14:29:12.487Z,95068.25
2022-11-07T14:31:53.724Z,95066.38
2022-11-07T14:34:23.001Z,95064.75
2022-11-07T14:37:07.293Z,95065.59
2022-11-07T14:39:57.463Z,95066.38
2022-11-07T14:42:28.243Z,95064.75
2022-11-07T14:44:59.044Z,95072.53
2022-11-07T14:47:34.007Z,95062.88
2022-11-07T14:50:09.981Z,95078.94
2022-11-07T14:53:00.054Z,95081.59
2022-11-07T14:55:36.249Z,95076.25
2022-11-07T14:58:10.376Z,95092.53
2022-11-07T15:00:39.336Z,95083.19
2022-11-07T15:03:06.887Z,95081.59
2022-11-07T15:05:45.319Z,95083.19
2022-11-07T15:08:56.934Z,95091.72
2022-11-07T15:11:52.299Z,95078.63
2022-11-07T15:14:50.533Z,95081.28
2022-11-07T15:17:25.331Z,95086.91
2022-11-07T15:20:03.571Z,95077.56
2022-11-07T15:22:38.577Z,95086.63
2022-11-07T15:25:56.599Z,95091.41
2022-11-07T15:28:33.819Z,95089.56
2022-11-07T15:31:01.927Z,95084.47
2022-11-07T15:33:33.478Z,95079.69
2022-11-07T15:36:02.232Z,95082.34
2022-11-07T15:38:30.129Z,95083.16
2022-11-07T15:40:57.347Z,95086.91
2022-11-07T15:43:24.756Z,95080.47
2022-11-07T15:45:54.940Z,95076.75
2022-11-07T15:48:28.862Z,95075.97
2022-11-07T15:50:56.163Z,95081.28
2022-11-07T15:53:26.502Z,95081.28
2022-11-07T15:55:56.539Z,95089.31
2022-11-07T15:58:26.932Z,95097.31
2022-11-07T16:00:55.204Z,95094.91
2022-11-07T16:03:25.458Z,95081.56
2022-11-07T16:05:55.495Z,95083.13
2022-11-07T16:08:24.516Z,95087.13
2022-11-07T16:11:04.564Z,95079.94
2022-11-07T16:13:32.335Z,95081.78
2022-11-07T16:16:03.248Z,95087.69
2022-11-07T16:18:43.373Z,95077.50
2022-11-07T16:21:11.680Z,95085.78
2022-11-07T16:23:43.189Z,95090.84
2022-11-07T16:26:26.631Z,95086.59
2022-11-07T16:28:53.997Z,95092.72
2022-11-07T16:31:21.228Z,95091.94
2022-11-07T16:33:48.560Z,95098.31
2022-11-07T16:36:25.382Z,95095.66
2022-11-07T16:38:53.021Z,95100.16
2022-11-07T16:41:20.360Z,95112.47
2022-11-07T16:43:47.812Z,95098.03
2022-11-07T16:46:21.475Z,95109.00
2022-11-07T16:49:04.127Z,95109.22
2022-11-07T16:51:33.071Z,95106.03
2022-11-07T16:54:00.242Z,95103.63
2022-11-07T16:56:31.660Z,95107.66
2022-11-07T16:59:00.034Z,95096.69
2022-11-07T17:01:28.389Z,95112.97
2022-11-07T17:03:55.694Z,95104.16
2022-11-07T17:06:30.532Z,95097.22
2022-11-07T17:09:06.115Z,95092.97
2022-11-07T17:11:39.104Z,95092.69
2022-11-07T17:14:06.168Z,95077.94
2022-11-07T17:16:36.688Z,95081.72
2022-11-07T17:19:05.887Z,95089.22
2022-11-07T17:21:37.925Z,95090.53
2022-11-07T17:24:06.051Z,95098.53
2022-11-07T17:26:37.785Z,95111.88
2022-11-07T17:29:08.187Z,95114.53
2022-11-07T17:31:35.612Z,95111.34
2022-11-07T17:34:03.051Z,95107.34
2022-11-07T17:36:37.523Z,95114.53
2022-11-07T17:39:11.376Z,95112.13
2022-11-07T17:41:40.731Z,95118.25
2022-11-07T17:44:08.261Z,95125.47
2022-11-07T17:46:37.435Z,95114.00
2022-11-07T17:49:07.192Z,95125.47
2022-11-07T17:51:39.491Z,95127.34
2022-11-07T17:54:07.043Z,95123.06
2022-11-07T17:56:34.558Z,95111.28
2022-11-07T17:59:14.429Z,95121.44
2022-11-07T18:01:42.000Z,95113.63
2022-11-07T18:04:12.478Z,95114.72
2022-11-07T18:06:42.336Z,95127.03
2022-11-07T18:09:15.802Z,95132.38
2022-11-07T18:11:44.243Z,95136.88
2022-11-07T18:14:14.076Z,95136.88
2022-11-07T18:16:42.349Z,95133.44
2022-11-07T18:19:10.818Z,95132.38
2022-11-07T18:21:38.028Z,95130.75
2022-11-07T18:24:05.507Z,95128.09
2022-11-07T18:26:33.476Z,95128.34
2022-11-07T18:29:05.196Z,95131.03
2022-11-07T18:31:32.354Z,95127.78
2022-11-07T18:34:03.455Z,95127.78
2022-11-07T18:36:32.190Z,95130.19
2022-11-07T18:39:05.611Z,95127.78
2022-11-07T18:41:32.866Z,95122.16
2022-11-07T18:44:04.464Z,95128.59
2022-11-07T18:46:32.323Z,95139.25
2022-11-07T18:49:00.288Z,95133.13
2022-11-07T18:51:27.479Z,95129.09
2022-11-07T18:53:55.627Z,95129.63
2022-11-07T18:56:22.903Z,95119.75
2022-11-07T18:58:49.980Z,95132.31
2022-11-07T19:01:26.664Z,95138.72
2022-11-07T19:03:56.482Z,95126.97
2022-11-07T19:06:26.375Z,95123.47
2022-11-07T19:08:53.993Z,95132.00
2022-11-07T19:11:26.531Z,95137.09
2022-11-07T19:13:53.736Z,95145.09
2022-11-07T19:16:22.122Z,95141.31
2022-11-07T19:18:50.268Z,95136.28
2022-11-07T19:21:23.571Z,95146.94
2022-11-07T19:23:52.053Z,95150.66
2022-11-07T19:26:19.824Z,95146.16
2022-11-07T19:28:47.728Z,95144.25
2022-11-07T19:31:15.445Z,95143.50
2022-11-07T19:33:43.637Z,95141.31
2022-11-07T19:36:17.194Z,95140.25
2022-11-07T19:38:45.250Z,95138.66
2022-11-07T19:41:13.768Z,95141.09
2022-11-07T19:43:42.597Z,95136.75
2022-11-07T19:46:19.607Z,95146.66
2022-11-07T19:48:47.749Z,95147.47
2022-11-07T19:51:21.506Z,95141.78
2022-11-07T19:53:58.739Z,95149.28
2022-11-07T19:56:29.153Z,95149.84
2022-11-07T19:58:56.573Z,95144.50
2022-11-07T20:01:28.175Z,95151.69
2022-11-07T20:03:56.395Z,95146.13
2022-11-07T20:06:37.132Z,95145.81
2022-11-07T20:09:15.037Z,95155.44
2022-11-07T20:11:43.317Z,95158.88
2022-11-07T20:14:12.381Z,95161.00
2022-11-07T20:16:39.789Z,95150.31
2022-11-07T20:19:07.314Z,95147.44
2022-11-07T20:21:34.475Z,95150.09
2022-11-07T20:24:01.671Z,95149.78
2022-11-07T20:26:30.614Z,95152.75
2022-11-07T20:28:58.872Z,95147.91
2022-11-07T20:31:30.447Z,95144.47
2022-11-07T20:34:03.410Z,95146.56
2022-11-07T20:36:33.753Z,95143.91
2022-11-07T20:39:01.977Z,95147.91
2022-11-07T20:41:29.754Z,95156.72
2022-11-07T20:44:03.939Z,95149.22
2022-11-07T20:46:34.648Z,95151.06
2022-11-07T20:49:10.888Z,95152.69
2022-11-07T20:51:38.053Z,95148.41
2022-11-07T20:54:05.868Z,95151.91
2022-11-07T20:56:33.919Z,95153.25
2022-11-07T20:59:01.319Z,95157.22
2022-11-07T21:01:38.228Z,95152.38
2022-11-07T21:04:17.037Z,95150.53
2022-11-07T21:06:44.534Z,95153.22
2022-11-07T21:09:12.364Z,95158.28
2022-11-07T21:11:41.598Z,95141.41
2022-11-07T21:14:10.309Z,95152.94
2022-11-07T21:16:37.502Z,95154.56
2022-11-07T21:19:07.985Z,95150.53
2022-11-07T21:21:35.234Z,95146.00
2022-11-07T21:24:03.323Z,95144.16
2022-11-07T21:26:41.569Z,95141.50
2022-11-07T21:29:09.591Z,95142.53
2022-11-07T21:31:39.588Z,95139.56
2022-11-07T21:34:09.216Z,95140.94
2022-11-07T21:36:36.621Z,95146.25
2022-11-07T21:39:04.797Z,95145.44
2022-11-07T21:41:32.043Z,95149.97
2022-11-07T21:43:59.865Z,95144.38
2022-11-07T21:46:31.579Z,95140.38
2022-11-07T21:48:59.449Z,95150.78
2022-11-07T21:51:30.200Z,95148.09
2022-11-07T21:53:59.351Z,95146.53
2022-11-07T21:56:35.409Z,95144.91
2022-11-07T21:59:07.670Z,95147.56
2022-11-07T22:01:36.178Z,95141.41
2022-11-07T22:04:11.119Z,95155.56
2022-11-07T22:06:43.610Z,95147.56
2022-11-07T22:09:16.130Z,95148.63
2022-11-07T22:11:44.076Z,95155.56
2022-11-07T22:14:15.885Z,95154.75
2022-11-07T22:16:43.268Z,95145.09
2022-11-07T22:19:12.748Z,95153.97
2022-11-07T22:21:40.958Z,95146.22
2022-11-07T22:24:09.327Z,95155.00
2022-11-07T22:26:36.786Z,95149.13
2022-11-07T22:29:05.569Z,95140.81
2022-11-07T22:31:32.828Z,95145.41
2022-11-07T22:34:01.102Z,95144.34
2022-11-07T22:36:29.891Z,95144.28
2022-11-07T22:38:58.757Z,95148.06
2022-11-07T22:41:29.021Z,95147.25
2022-11-07T22:43:57.429Z,95150.19
2022-11-07T22:46:30.183Z,95151.78
2022-11-07T22:48:59.313Z,95144.84
2022-11-07T22:51:34.362Z,95137.66
2022-11-07T22:54:05.968Z,95145.09
2022-11-07T22:56:35.376Z,95142.44
2022-11-07T22:59:03.886Z,95135.25
2022-11-07T23:01:35.571Z,95122.38
2022-11-07T23:04:03.184Z,95141.63
2022-11-07T23:06:30.918Z,95138.97
2022-11-07T23:08:59.470Z,95136.31
2022-11-07T23:11:48.559Z,95122.94
2022-11-07T23:14:20.217Z,95133.91
2022-11-07T23:16:51.147Z,95134.94
2022-11-07T23:19:21.807Z,95133.31
2022-11-07T23:21:50.867Z,95139.44
2022-11-07T23:24:18.127Z,95135.16
2022-11-07T23:26:45.378Z,95134.13
2022-11-07T23:29:23.077Z,95144.00
2022-11-07T23:31:51.817Z,95142.94
2022-11-07T23:34:20.183Z,95130.66
2022-11-07T23:36:51.337Z,95124.78
2022-11-07T23:39:21.799Z,95137.03
2022-11-07T23:41:49.697Z,95132.50
2022-11-07T23:44:16.757Z,95133.59
2022-11-07T23:47:03.257Z,95137.84
2022-11-07T23:49:49.626Z,95130.81
2022-11-07T23:52:17.920Z,95139.16
2022-11-07T23:55:03.852Z,95131.41
2022-11-07T23:57:55.411Z,95135.59
